Time;durP1;ratioP1;P1;durP2;ratioP2;P2;SDS_P1;SDS_P2;PMS_P1;PMS_P2;Temp;Humidity;BMP_temperature;BMP_pressure;BME280_temperature;BME280_humidity;BME280_pressure;Samples;Min_cycle;Max_cycle;Signal;HPM_P1;HPM_P2
2021/04/25 00:00:21;;;;;;;15.70;5.47;;;5.20;81.20;;;;;;5089522;28;20048;-84
2021/04/25 00:02:49;;;;;;;12.65;5.95;;;5.30;80.80;;;;;;5091230;28;20385;-84
2021/04/25 00:05:18;;;;;;;10.60;4.95;;;5.20;82.10;;;;;;5091546;28;20087;-83
2021/04/25 00:07:45;;;;;;;9.15;5.47;;;5.30;82.30;;;;;;5089299;28;20040;-84
2021/04/25 00:10:16;;;;;;;11.80;5.07;;;5.20;82.40;;;;;;5090120;28;20834;-84
2021/04/25 00:12:44;;;;;;;8.13;5.82;;;5.30;81.80;;;;;;5088706;28;20055;-83
2021/04/25 00:15:15;;;;;;;9.57;5.82;;;5.20;82.00;;;;;;5089276;28;20533;-84
2021/04/25 00:17:42;;;;;;;;;;;5.20;82.20;;;;;;5073400;28;20044;-84
2021/04/25 00:20:11;;;;;;;9.82;6.85;;;5.10;82.30;;;;;;5076768;28;20304;-83
2021/04/25 00:22:40;;;;;;;9.68;5.25;;;5.20;81.90;;;;;;5079062;28;20054;-84
2021/04/25 00:25:08;;;;;;;7.20;4.93;;;5.20;81.30;;;;;;5109536;28;20075;-84
2021/04/25 00:27:36;;;;;;;8.88;5.25;;;5.30;80.80;;;;;;5095216;28;20497;-83
2021/04/25 00:30:07;;;;;;;13.57;7.05;;;5.30;80.90;;;;;;5072086;28;20055;-84
2021/04/25 00:32:35;;;;;;;11.45;5.15;;;5.30;81.20;;;;;;5089067;28;20048;-84
2021/04/25 00:35:04;;;;;;;8.85;5.20;;;5.30;81.80;;;;;;5072545;28;20044;-84
2021/04/25 00:37:31;;;;;;;11.93;6.18;;;5.20;81.10;;;;;;5089770;28;20071;-84
2021/04/25 00:39:59;;;;;;;6.97;5.28;;;5.20;81.70;;;;;;5088694;28;20420;-84
2021/04/25 00:42:27;;;;;;;8.35;4.97;;;5.20;81.80;;;;;;5072699;28;20054;-83
2021/04/25 00:45:03;;;;;;;7.07;5.60;;;5.10;83.30;;;;;;5072246;28;20075;-83
2021/04/25 00:47:30;;;;;;;8.32;5.78;;;4.90;82.70;;;;;;5090216;28;20060;-83
2021/04/25 00:49:58;;;;;;;11.00;7.38;;;4.90;82.40;;;;;;5072360;28;20056;-83
2021/04/25 00:52:26;;;;;;;12.20;5.55;;;4.90;83.20;;;;;;5090727;28;20040;-84
2021/04/25 00:54:54;;;;;;;8.27;6.20;;;4.80;82.80;;;;;;5100406;28;20735;-84
2021/04/25 00:57:21;;;;;;;8.63;6.13;;;4.80;83.00;;;;;;5093034;28;20059;-83
2021/04/25 00:59:52;;;;;;;13.32;5.90;;;4.70;83.10;;;;;;5068518;28;20044;-83
2021/04/25 01:02:20;;;;;;;15.32;6.13;;;4.70;83.00;;;;;;5069214;28;20507;-84
2021/04/25 01:04:47;;;;;;;11.25;5.00;;;4.80;83.20;;;;;;5069267;28;20044;-83
2021/04/25 01:07:14;;;;;;;7.93;5.13;;;4.80;82.70;;;;;;5069922;28;20397;-84
2021/04/25 01:09:42;;;;;;;8.07;5.55;;;4.70;84.20;;;;;;5068705;28;20401;-84
2021/04/25 01:12:09;;;;;;;15.52;6.30;;;4.70;84.00;;;;;;5067973;28;20409;-84
2021/04/25 01:14:37;;;;;;;7.65;6.50;;;4.70;84.80;;;;;;5052152;28;20049;-84
2021/04/25 01:17:04;;;;;;;6.78;5.32;;;4.60;84.70;;;;;;5068485;28;20052;-83
2021/04/25 01:19:32;;;;;;;11.85;5.50;;;4.60;85.10;;;;;;5051477;28;20051;-84
2021/04/25 01:22:00;;;;;;;6.85;5.40;;;4.60;85.20;;;;;;5068768;28;20057;-83
2021/04/25 01:24:27;;;;;;;8.80;5.47;;;4.60;85.50;;;;;;5068369;28;20568;-83
2021/04/25 01:27:03;;;;;;;5.88;5.25;;;4.40;86.30;;;;;;5098924;28;20051;-83
2021/04/25 01:29:30;;;;;;;9.02;6.88;;;4.20;87.30;;;;;;5089941;28;20060;-83
2021/04/25 01:31:57;;;;;;;15.43;5.90;;;4.30;87.40;;;;;;5054954;28;20047;-83
2021/04/25 01:34:25;;;;;;;7.80;5.55;;;4.30;88.00;;;;;;5090025;28;20052;-83
2021/04/25 01:36:56;;;;;;;7.75;5.15;;;4.10;88.80;;;;;;5089551;28;20619;-83
2021/04/25 01:39:25;;;;;;;8.45;5.88;;;4.20;88.90;;;;;;5088396;28;20094;-83
2021/04/25 01:41:56;;;;;;;11.77;8.00;;;4.10;89.20;;;;;;5076398;28;20059;-83
2021/04/25 01:44:24;;;;;;;11.18;5.82;;;4.20;88.10;;;;;;5095010;28;20066;-84
2021/04/25 01:46:52;;;;;;;9.32;6.03;;;4.40;87.50;;;;;;5094919;28;20047;-83
2021/04/25 01:49:19;;;;;;;8.18;5.57;;;4.60;87.10;;;;;;5111880;28;20047;-84
2021/04/25 01:51:47;;;;;;;7.22;5.43;;;4.40;87.10;;;;;;5112144;28;20051;-83
2021/04/25 01:54:14;;;;;;;9.10;6.85;;;4.30;88.00;;;;;;5112957;28;20058;-83
2021/04/25 01:56:42;;;;;;;10.65;6.65;;;4.20;89.10;;;;;;5105439;28;20048;-83
2021/04/25 01:59:09;;;;;;;6.68;4.95;;;4.00;90.00;;;;;;5109196;28;20047;-83
2021/04/25 02:01:36;;;;;;;8.30;5.80;;;3.90;90.50;;;;;;5091794;28;20063;-84
2021/04/25 02:04:04;;;;;;;12.45;5.75;;;3.70;90.70;;;;;;5074312;28;20043;-83
2021/04/25 02:06:34;;;;;;;6.97;5.30;;;3.70;90.70;;;;;;5091793;28;20048;-83
2021/04/25 02:09:04;;;;;;;7.25;5.65;;;3.80;90.60;;;;;;5074821;28;20055;-83
2021/04/25 02:11:31;;;;;;;7.03;5.55;;;3.80;90.60;;;;;;5108221;28;20051;-83
2021/04/25 02:13:59;;;;;;;8.40;5.78;;;3.80;90.60;;;;;;5091742;28;20055;-83
2021/04/25 02:16:26;;;;;;;9.38;5.78;;;3.90;90.50;;;;;;5108278;28;20054;-83
2021/04/25 02:18:53;;;;;;;9.00;6.35;;;4.00;90.60;;;;;;5092871;28;20055;-83
2021/04/25 02:21:21;;;;;;;6.05;5.07;;;3.70;91.50;;;;;;5092199;28;20078;-83
2021/04/25 02:23:48;;;;;;;8.52;5.38;;;3.50;91.90;;;;;;5093082;28;20040;-83
2021/04/25 02:26:16;;;;;;;6.57;5.22;;;3.30;92.40;;;;;;5101093;28;20291;-83
2021/04/25 02:28:43;;;;;;;6.70;5.53;;;3.20;92.90;;;;;;5113614;28;20044;-83
2021/04/25 02:31:11;;;;;;;18.05;6.70;;;3.10;93.20;;;;;;5094261;28;20039;-83
2021/04/25 02:33:38;;;;;;;7.60;5.32;;;2.90;94.10;;;;;;5113517;28;20059;-83
2021/04/25 02:36:06;;;;;;;8.13;5.38;;;2.90;94.20;;;;;;5113413;28;20480;-83
2021/04/25 02:38:34;;;;;;;9.43;7.22;;;2.90;94.50;;;;;;5113924;28;20048;-83
2021/04/25 02:41:02;;;;;;;9.35;6.47;;;3.00;94.30;;;;;;5117501;27;20046;-83
2021/04/25 02:43:30;;;;;;;8.77;5.68;;;3.10;94.10;;;;;;5132678;27;20027;-83
2021/04/25 02:45:57;;;;;;;13.27;5.85;;;3.20;93.50;;;;;;5115226;27;20400;-83
2021/04/25 02:48:25;;;;;;;10.90;6.82;;;3.10;94.00;;;;;;5115023;27;20051;-83
2021/04/25 02:50:52;;;;;;;10.68;5.75;;;3.00;95.20;;;;;;5115127;27;20051;-83
2021/04/25 02:53:19;;;;;;;8.55;6.43;;;2.90;95.30;;;;;;5115948;27;20047;-83
2021/04/25 02:55:47;;;;;;;10.52;7.40;;;2.90;95.70;;;;;;5097729;27;20039;-83
2021/04/25 02:58:14;;;;;;;14.10;6.78;;;2.90;95.60;;;;;;5096878;27;20092;-83
2021/04/25 03:00:42;;;;;;;13.70;7.20;;;3.10;95.30;;;;;;5073856;28;20051;-83
2021/04/25 03:03:09;;;;;;;10.50;7.00;;;3.10;95.50;;;;;;5074128;28;20047;-83
2021/04/25 03:05:36;;;;;;;13.18;7.45;;;3.10;95.20;;;;;;5090505;28;20048;-83
2021/04/25 03:08:04;;;;;;;11.38;7.07;;;3.30;94.40;;;;;;5091081;28;20700;-83
2021/04/25 03:10:32;;;;;;;9.32;6.15;;;3.40;94.70;;;;;;5074156;28;20051;-83
2021/04/25 03:12:59;;;;;;;6.95;6.00;;;3.30;95.40;;;;;;5107205;28;20054;-83
2021/04/25 03:15:27;;;;;;;8.65;5.85;;;3.10;96.10;;;;;;5112504;28;20400;-83
2021/04/25 03:17:54;;;;;;;7.43;6.50;;;3.00;95.50;;;;;;5094985;28;20047;-83
2021/04/25 03:20:23;;;;;;;8.45;7.63;;;2.90;96.70;;;;;;5077146;28;20036;-83
2021/04/25 03:22:51;;;;;;;9.50;7.43;;;2.90;96.60;;;;;;5094186;28;20058;-83
2021/04/25 03:25:18;;;;;;;9.52;7.07;;;2.90;96.40;;;;;;5094423;28;20060;-83
2021/04/25 03:27:46;;;;;;;19.40;7.82;;;2.90;96.20;;;;;;5112123;28;20040;-83
2021/04/25 03:30:15;;;;;;;8.00;6.63;;;3.00;96.10;;;;;;5094280;28;20068;-83
2021/04/25 03:32:43;;;;;;;10.02;6.13;;;3.00;95.60;;;;;;5093958;28;20036;-83
2021/04/25 03:35:13;;;;;;;14.38;6.55;;;3.00;94.50;;;;;;5111172;28;20039;-83
2021/04/25 03:37:40;;;;;;;13.75;8.40;;;3.10;94.10;;;;;;5111927;28;20062;-83
2021/04/25 03:40:10;;;;;;;8.98;6.95;;;3.20;93.80;;;;;;5112126;28;20050;-83
2021/04/25 03:42:38;;;;;;;11.82;7.15;;;3.30;93.60;;;;;;5112631;28;20062;-83
2021/04/25 03:45:07;;;;;;;10.82;8.13;;;3.30;93.50;;;;;;5093186;28;20651;-83
2021/04/25 03:47:34;;;;;;;10.57;8.32;;;3.30;93.30;;;;;;5093501;28;20043;-83
2021/04/25 03:50:01;;;;;;;9.50;7.20;;;3.30;93.70;;;;;;5093400;28;20067;-83
2021/04/25 03:52:29;;;;;;;11.70;9.27;;;3.30;93.70;;;;;;5093677;28;20408;-83
2021/04/25 03:54:56;;;;;;;7.22;6.32;;;3.30;93.70;;;;;;5093515;28;20047;-83
2021/04/25 03:57:23;;;;;;;13.93;8.23;;;3.30;93.60;;;;;;5077255;28;20052;-83
2021/04/25 03:59:51;;;;;;;14.80;8.35;;;3.20;93.80;;;;;;5093619;28;20065;-83
2021/04/25 04:02:18;;;;;;;15.18;7.85;;;3.10;94.10;;;;;;5093645;28;20416;-83
2021/04/25 04:04:45;;;;;;;13.35;8.73;;;3.00;94.20;;;;;;5059622;28;20047;-83
2021/04/25 04:07:13;;;;;;;11.38;8.35;;;3.00;94.30;;;;;;5093106;28;20055;-83
2021/04/25 04:09:40;;;;;;;11.48;7.55;;;3.00;94.30;;;;;;5076671;28;20048;-77
2021/04/25 04:12:08;;;;;;;10.57;7.47;;;3.00;94.30;;;;;;5111341;28;20036;-76
2021/04/25 04:14:35;;;;;;;9.68;7.00;;;3.00;94.60;;;;;;5110676;28;20047;-76
2021/04/25 04:17:03;;;;;;;11.45;8.65;;;3.00;94.50;;;;;;5109972;28;20051;-87
2021/04/25 04:19:31;;;;;;;9.32;7.05;;;3.00;94.70;;;;;;5111008;28;20066;-87
2021/04/25 04:21:58;;;;;;;9.82;7.78;;;3.00;95.00;;;;;;5111615;28;20062;-87
2021/04/25 04:24:25;;;;;;;11.80;7.40;;;3.00;94.90;;;;;;5110696;28;20052;-87
2021/04/25 04:26:54;;;;;;;13.20;10.73;;;3.10;94.70;;;;;;5093528;28;20055;-87
2021/04/25 04:29:21;;;;;;;12.82;8.70;;;3.20;94.50;;;;;;5088822;27;20051;-87
2021/04/25 04:31:48;;;;;;;15.73;8.52;;;3.20;94.40;;;;;;5112182;27;20070;-87
2021/04/25 04:34:16;;;;;;;13.73;8.32;;;3.20;94.60;;;;;;5130914;27;20590;-88
2021/04/25 04:36:47;;;;;;;14.35;10.32;;;3.20;94.70;;;;;;5094303;28;20400;-87
2021/04/25 04:39:15;;;;;;;10.30;7.93;;;3.20;94.80;;;;;;5109879;28;20050;-88
2021/04/25 04:41:42;;;;;;;10.35;7.18;;;3.20;94.70;;;;;;5076626;28;20051;-88
2021/04/25 04:44:09;;;;;;;9.35;6.93;;;3.30;94.80;;;;;;5092466;28;20383;-87
2021/04/25 04:46:37;;;;;;;12.02;7.72;;;3.30;94.80;;;;;;5093649;27;20430;-87
2021/04/25 04:49:04;;;;;;;12.05;8.32;;;3.20;95.30;;;;;;5113156;27;20061;-88
2021/04/25 04:51:33;;;;;;;9.90;8.05;;;3.20;95.30;;;;;;5112423;27;20039;-86
2021/04/25 04:54:01;;;;;;;10.60;8.07;;;3.30;95.10;;;;;;5096811;27;20047;-87
2021/04/25 04:56:28;;;;;;;17.30;10.05;;;3.50;94.50;;;;;;5071286;28;20044;-87
2021/04/25 04:58:55;;;;;;;15.02;9.60;;;3.70;94.90;;;;;;5092222;28;20440;-87
2021/04/25 05:01:24;;;;;;;14.40;10.70;;;3.70;94.80;;;;;;5059279;28;20047;-86
2021/04/25 05:03:52;;;;;;;14.90;10.60;;;3.60;95.10;;;;;;5075302;28;20044;-84
2021/04/25 05:06:20;;;;;;;17.08;11.20;;;3.60;95.40;;;;;;5075774;28;20058;-86
2021/04/25 05:08:47;;;;;;;13.65;9.35;;;3.60;95.50;;;;;;5075248;28;20036;-86
2021/04/25 05:11:15;;;;;;;13.65;10.48;;;3.60;95.50;;;;;;5091255;28;20519;-86
2021/04/25 05:13:42;;;;;;;14.00;10.13;;;3.80;95.80;;;;;;5092237;28;20842;-86
2021/04/25 05:16:10;;;;;;;11.07;9.90;;;3.90;95.10;;;;;;5091791;28;20047;-86
2021/04/25 05:18:39;;;;;;;12.45;10.75;;;4.10;95.20;;;;;;5075843;28;20043;-85
2021/04/25 05:21:06;;;;;;;13.63;10.35;;;4.10;94.90;;;;;;5075490;28;20043;-87
2021/04/25 05:23:34;;;;;;;17.75;12.75;;;4.20;95.30;;;;;;5058647;28;20036;-86
2021/04/25 05:26:01;;;;;;;13.77;11.35;;;4.50;95.20;;;;;;5090515;28;20047;-86
2021/04/25 05:28:30;;;;;;;16.30;12.32;;;4.60;95.10;;;;;;5055118;28;20071;-86
2021/04/25 05:30:58;;;;;;;22.38;13.10;;;4.70;94.60;;;;;;5090984;28;20051;-86
2021/04/25 05:33:26;;;;;;;15.32;12.55;;;4.90;93.90;;;;;;5071826;28;20051;-87
2021/04/25 05:35:54;;;;;;;16.05;10.55;;;5.00;94.30;;;;;;5100550;28;20043;-87
2021/04/25 05:38:22;;;;;;;20.48;14.27;;;5.30;94.00;;;;;;5075554;28;20048;-87
2021/04/25 05:40:50;;;;;;;20.77;12.73;;;5.70;92.70;;;;;;5091887;28;20051;-87
2021/04/25 05:43:17;;;;;;;17.05;12.52;;;6.00;93.20;;;;;;5058256;28;20039;-88
2021/04/25 05:45:45;;;;;;;17.83;13.50;;;6.20;92.20;;;;;;5099068;28;20055;-82
2021/04/25 05:48:12;;;;;;;15.43;12.52;;;6.40;91.70;;;;;;5111301;28;20040;-82
2021/04/25 05:50:40;;;;;;;23.48;15.15;;;6.40;91.70;;;;;;5112862;28;20475;-82
2021/04/25 05:53:08;;;;;;;19.52;14.57;;;6.60;91.40;;;;;;5114864;27;20043;-83
2021/04/25 05:55:35;;;;;;;22.70;13.75;;;6.80;90.80;;;;;;5098239;27;20058;-82
2021/04/25 05:58:05;;;;;;;18.38;13.25;;;7.00;90.60;;;;;;5097469;28;20051;-83
2021/04/25 06:00:33;;;;;;;18.08;14.10;;;7.20;90.30;;;;;;5067632;27;20415;-84
2021/04/25 06:03:00;;;;;;;16.38;11.95;;;7.30;88.50;;;;;;5081915;27;20054;-83
2021/04/25 06:05:28;;;;;;;18.60;13.43;;;7.30;90.00;;;;;;5134669;27;20408;-83
2021/04/25 06:07:56;;;;;;;20.20;12.48;;;7.30;89.30;;;;;;5133819;27;20051;-83
2021/04/25 06:10:23;;;;;;;17.13;12.50;;;7.50;88.30;;;;;;5099194;27;20051;-83
2021/04/25 06:12:53;;;;;;;22.92;16.30;;;7.70;87.00;;;;;;5134047;27;20045;-82
2021/04/25 06:15:23;;;;;;;20.27;13.27;;;8.10;86.80;;;;;;5081846;27;20040;-83
2021/04/25 06:17:51;;;;;;;19.58;14.20;;;8.20;85.40;;;;;;5082662;27;20051;-82
2021/04/25 06:20:20;;;;;;;15.20;11.95;;;7.90;86.90;;;;;;5120279;27;20136;-82
2021/04/25 06:22:47;;;;;;;14.68;12.60;;;8.00;85.60;;;;;;5094139;28;20048;-83
2021/04/25 06:25:16;;;;;;;17.35;13.30;;;8.50;85.40;;;;;;5113498;28;20058;-82
2021/04/25 06:27:44;;;;;;;19.33;13.70;;;8.40;84.20;;;;;;5113225;28;20040;-82
2021/04/25 06:30:13;;;;;;;23.92;14.88;;;9.00;84.50;;;;;;5119669;27;20558;-83
2021/04/25 06:32:43;;;;;;;15.68;14.07;;;9.20;80.40;;;;;;5132821;27;20039;-82
2021/04/25 06:35:13;;;;;;;17.38;12.45;;;9.50;82.50;;;;;;5091259;28;20043;-83
2021/04/25 06:37:42;;;;;;;18.42;13.07;;;9.80;80.60;;;;;;5113359;28;20051;-83
2021/04/25 06:40:10;;;;;;;16.63;13.57;;;10.00;77.60;;;;;;5111955;28;20058;-83
2021/04/25 06:42:39;;;;;;;17.08;14.15;;;9.50;80.50;;;;;;5112655;28;20060;-83
2021/04/25 06:45:13;;;;;;;19.48;15.50;;;8.90;81.90;;;;;;5111926;28;20043;-83
2021/04/25 06:47:40;;;;;;;15.60;12.77;;;8.50;82.10;;;;;;5112697;28;20059;-84
2021/04/25 06:50:11;;;;;;;18.48;13.57;;;8.30;85.30;;;;;;5112361;28;20064;-83
2021/04/25 06:52:40;;;;;;;18.90;12.95;;;8.70;83.50;;;;;;5094414;28;20036;-82
2021/04/25 06:55:10;;;;;;;15.57;12.07;;;9.10;82.80;;;;;;5112189;28;20499;-82
2021/04/25 06:57:37;;;;;;;20.58;14.73;;;9.60;80.80;;;;;;5083938;28;20055;-82
2021/04/25 07:00:07;;;;;;;18.27;13.93;;;10.00;79.30;;;;;;5101159;27;20494;-82
2021/04/25 07:02:34;;;;;;;19.77;15.48;;;9.80;79.00;;;;;;5132906;27;20078;-83
2021/04/25 07:05:10;;;;;;;17.50;12.82;;;9.90;81.50;;;;;;5098583;27;20051;-83
2021/04/25 07:07:38;;;;;;;17.10;11.88;;;10.90;74.50;;;;;;5114529;27;20043;-82
2021/04/25 07:10:07;;;;;;;15.98;13.05;;;11.50;72.60;;;;;;5132778;27;20629;-83
2021/04/25 07:12:34;;;;;;;15.25;12.82;;;11.30;73.40;;;;;;5097835;27;20046;-82
2021/04/25 07:15:02;;;;;;;14.60;12.35;;;12.20;70.10;;;;;;5133399;27;22830;-83
2021/04/25 07:17:41;;;;;;;15.32;12.98;;;12.80;69.50;;;;;;5110851;27;20060;-84
2021/04/25 07:20:19;;;;;;;20.20;12.73;;;13.80;63.70;;;;;;5130970;27;20403;-83
2021/04/25 07:22:47;;;;;;;15.38;13.68;;;14.60;60.70;;;;;;5114523;27;20047;-82
2021/04/25 07:25:14;;;;;;;12.68;11.35;;;14.40;63.20;;;;;;5114819;27;20043;-82
2021/04/25 07:27:41;;;;;;;19.73;12.60;;;13.90;59.00;;;;;;5117673;27;20036;-79
2021/04/25 07:30:09;;;;;;;14.98;13.00;;;14.50;60.70;;;;;;5112346;28;20055;-80
2021/04/25 07:32:37;;;;;;;22.80;11.02;;;13.30;60.50;;;;;;5102562;28;20041;-80
2021/04/25 07:35:09;;;;;;;13.45;10.50;;;13.60;61.70;;;;;;5079581;28;20055;-83
2021/04/25 07:37:39;;;;;;;;;;;15.50;54.40;;;;;;5095506;28;20130;-81
2021/04/25 07:40:08;;;;;;;18.65;13.07;;;16.40;51.50;;;;;;5111131;28;19920;-79
2021/04/25 07:42:37;;;;;;;16.67;12.40;;;15.80;52.10;;;;;;5112414;28;20052;-80
2021/04/25 07:45:08;;;;;;;17.80;12.38;;;15.30;53.60;;;;;;5111119;28;20040;-80
2021/04/25 07:47:36;;;;;;;14.77;11.98;;;16.10;51.60;;;;;;5093432;28;20721;-80
2021/04/25 07:50:03;;;;;;;15.52;11.73;;;16.20;49.00;;;;;;5093665;28;20121;-80
2021/04/25 07:52:31;;;;;;;15.20;11.65;;;15.90;51.30;;;;;;5093312;28;20480;-81
2021/04/25 07:54:59;;;;;;;12.45;11.20;;;16.30;50.20;;;;;;5092988;28;20051;-80
2021/04/25 07:57:26;;;;;;;17.30;11.68;;;15.20;53.60;;;;;;5097978;28;20473;-81
2021/04/25 07:59:53;;;;;;;15.38;11.00;;;15.00;55.40;;;;;;5088814;27;20523;-81
2021/04/25 08:02:22;;;;;;;22.90;13.48;;;14.40;55.00;;;;;;5131254;27;20055;-83
2021/04/25 08:04:50;;;;;;;16.45;12.05;;;15.30;56.70;;;;;;5113771;27;20032;-81
2021/04/25 08:07:18;;;;;;;16.60;12.25;;;15.60;51.20;;;;;;5131851;27;20480;-80
2021/04/25 08:09:45;;;;;;;15.30;11.15;;;16.60;49.00;;;;;;5131658;27;20054;-81
2021/04/25 08:12:13;;;;;;;17.25;11.48;;;16.70;47.90;;;;;;5131584;27;20035;-81
2021/04/25 08:14:40;;;;;;;16.88;11.77;;;18.40;43.70;;;;;;5130303;27;20058;-81
2021/04/25 08:17:08;;;;;;;13.45;12.02;;;17.90;47.00;;;;;;5131448;27;20043;-79
2021/04/25 08:19:35;;;;;;;14.90;12.50;;;17.00;47.60;;;;;;5116158;27;20047;-81
2021/04/25 08:22:03;;;;;;;15.15;10.73;;;16.10;49.90;;;;;;5089694;28;20048;-80
2021/04/25 08:24:30;;;;;;;12.25;10.95;;;16.10;50.00;;;;;;5090740;28;20044;-78
2021/04/25 08:26:57;;;;;;;15.25;12.55;;;17.70;43.20;;;;;;5099774;28;20059;-84
2021/04/25 08:29:29;;;;;;;14.43;10.93;;;17.20;49.30;;;;;;5117015;28;20044;-77
2021/04/25 08:32:00;;;;;;;13.65;10.32;;;17.50;47.00;;;;;;5109789;28;20039;-77
2021/04/25 08:34:34;;;;;;;14.90;10.60;;;20.20;39.10;;;;;;5110203;28;20050;-76
2021/04/25 08:37:02;;;;;;;15.80;10.27;;;19.50;39.50;;;;;;5089588;28;20083;-79
2021/04/25 08:39:29;;;;;;;11.93;9.82;;;18.30;44.00;;;;;;5089113;28;20485;-79
2021/04/25 08:41:57;;;;;;;13.40;11.40;;;17.60;43.20;;;;;;5072328;28;20595;-79
2021/04/25 08:44:25;;;;;;;13.00;11.13;;;17.90;43.10;;;;;;5093367;28;20044;-77
2021/04/25 08:46:53;;;;;;;12.23;10.38;;;18.00;44.00;;;;;;5110302;28;20052;-79
2021/04/25 08:49:25;;;;;;;13.73;10.43;;;16.00;47.80;;;;;;5110147;28;20063;-78
2021/04/25 08:51:54;;;;;;;17.02;9.82;;;16.70;50.80;;;;;;5109392;28;20047;-78
2021/04/25 08:54:30;;;;;;;25.10;10.77;;;17.20;47.70;;;;;;5093565;28;20052;-78
2021/04/25 08:56:58;;;;;;;16.23;12.25;;;16.10;48.40;;;;;;5105689;28;20044;-79
2021/04/25 08:59:25;;;;;;;11.85;8.85;;;14.70;51.90;;;;;;5088799;28;20048;-79
2021/04/25 09:01:53;;;;;;;16.73;10.35;;;14.10;53.50;;;;;;5080856;28;20052;-78
2021/04/25 09:04:20;;;;;;;14.30;10.63;;;14.20;54.90;;;;;;5089761;28;20052;-79
2021/04/25 09:07:00;;;;;;;13.73;11.00;;;14.30;54.50;;;;;;5071864;28;20400;-78
2021/04/25 09:10:09;;;;;;;11.73;9.93;;;14.20;59.10;;;;;;5089074;28;20496;-78
2021/04/25 09:12:43;;;;;;;15.50;10.90;;;13.60;60.90;;;;;;5064756;28;20048;-78
2021/04/25 09:15:11;;;;;;;16.77;10.38;;;13.70;60.10;;;;;;5088857;28;20055;-79
2021/04/25 09:17:51;;;;;;;14.43;10.68;;;13.80;59.50;;;;;;5072285;28;20056;-79
2021/04/25 09:20:30;;;;;;;16.70;10.93;;;13.70;58.10;;;;;;5070976;28;20056;-80
2021/04/25 09:22:57;;;;;;;16.83;11.98;;;13.60;65.40;;;;;;5070912;28;20086;-79
2021/04/25 09:25:25;;;;;;;15.15;12.60;;;13.50;58.30;;;;;;5071495;28;20401;-79
2021/04/25 09:27:53;;;;;;;17.85;11.60;;;12.70;62.10;;;;;;5087715;28;20055;-79
2021/04/25 09:30:25;;;;;;;15.25;11.75;;;12.80;61.70;;;;;;5091118;28;20408;-79
2021/04/25 09:33:09;;;;;;;16.92;12.50;;;13.10;61.00;;;;;;5088139;28;20040;-79
2021/04/25 09:35:39;;;;;;;69.30;15.75;;;13.20;63.70;;;;;;5099265;28;20044;-80
2021/04/25 09:38:11;;;;;;;13.45;11.88;;;13.10;61.90;;;;;;5110006;28;20043;-79
2021/04/25 09:40:43;;;;;;;15.00;10.30;;;13.00;64.40;;;;;;5074693;28;20047;-78
2021/04/25 09:43:14;;;;;;;13.55;10.02;;;13.20;63.60;;;;;;5090967;28;20043;-80
2021/04/25 09:45:46;;;;;;;21.00;11.70;;;13.10;63.20;;;;;;5091136;28;20385;-79
2021/04/25 09:48:22;;;;;;;19.77;11.77;;;13.00;63.90;;;;;;5109051;28;20066;-78
2021/04/25 09:51:13;;;;;;;15.15;10.75;;;13.20;66.60;;;;;;5090516;28;20043;-80
2021/04/25 09:53:54;;;;;;;12.13;9.97;;;13.90;66.70;;;;;;5109849;28;20051;-80
2021/04/25 09:56:44;;;;;;;14.27;11.20;;;14.00;62.80;;;;;;5109831;28;20059;-82
2021/04/25 09:59:11;;;;;;;19.75;12.88;;;13.50;61.80;;;;;;5109297;28;20044;-80
2021/04/25 10:01:42;;;;;;;19.10;13.32;;;13.70;63.80;;;;;;5109131;28;20051;-79
2021/04/25 10:04:37;;;;;;;11.70;10.30;;;13.80;66.70;;;;;;5090552;28;20412;-80
2021/04/25 10:07:07;;;;;;;17.85;12.05;;;13.80;61.60;;;;;;5091140;28;20039;-81
2021/04/25 10:09:35;;;;;;;14.45;9.95;;;13.80;63.10;;;;;;5091395;28;20052;-77
2021/04/25 10:12:03;;;;;;;26.50;11.70;;;13.90;62.70;;;;;;5108201;28;20040;-86
2021/04/25 10:14:33;;;;;;;13.40;9.80;;;13.80;64.00;;;;;;5109609;28;20063;-82
2021/04/25 10:17:02;;;;;;;21.10;10.40;;;13.40;60.70;;;;;;5090924;28;20056;-83
2021/04/25 10:19:31;;;;;;;14.48;9.68;;;13.60;63.10;;;;;;5109100;28;20057;-83
2021/04/25 10:21:58;;;;;;;16.75;11.52;;;13.70;62.30;;;;;;5109605;28;20048;-82
2021/04/25 10:24:25;;;;;;;18.00;9.65;;;13.70;62.80;;;;;;5074007;28;20055;-83
2021/04/25 10:27:12;;;;;;;17.83;13.20;;;13.90;61.70;;;;;;5091142;28;20058;-85
2021/04/25 10:29:51;;;;;;;20.48;13.48;;;13.80;65.30;;;;;;5109433;28;20047;-82
2021/04/25 10:32:20;;;;;;;26.42;12.48;;;13.40;64.50;;;;;;5108413;28;20745;-82
2021/04/25 10:35:08;;;;;;;14.50;11.43;;;13.20;66.10;;;;;;5108699;28;20047;-82
2021/04/25 10:37:39;;;;;;;16.58;11.82;;;12.90;63.80;;;;;;5110640;28;20734;-83
2021/04/25 10:40:28;;;;;;;15.00;11.10;;;12.70;66.70;;;;;;5112021;28;20066;-84
2021/04/25 10:43:01;;;;;;;17.50;11.48;;;12.60;65.10;;;;;;5094399;28;20047;-83
2021/04/25 10:45:35;;;;;;;18.60;10.95;;;13.20;65.20;;;;;;5095064;28;20055;-83
2021/04/25 10:48:33;;;;;;;18.52;12.55;;;13.10;64.30;;;;;;5111896;28;20051;-82
2021/04/25 10:51:21;;;;;;;19.08;11.57;;;13.50;65.60;;;;;;5107347;28;20055;-80
2021/04/25 10:54:02;;;;;;;16.20;11.32;;;13.70;69.40;;;;;;5113284;28;20058;-83
2021/04/25 10:56:30;;;;;;;25.55;11.98;;;13.80;64.30;;;;;;5111180;28;20480;-81
2021/04/25 10:59:20;;;;;;;18.33;14.55;;;13.10;62.10;;;;;;5092410;28;20055;-83
2021/04/25 11:01:48;;;;;;;18.17;12.07;;;12.70;67.20;;;;;;5074585;28;20044;-82
2021/04/25 11:05:15;;;;;;;18.98;11.43;;;13.00;71.80;;;;;;5090975;28;20051;-83
2021/04/25 11:07:44;;;;;;;18.08;12.05;;;13.80;64.90;;;;;;5009469;28;20050;-84
2021/04/25 11:10:16;;;;;;;20.75;12.98;;;13.60;66.40;;;;;;5009112;28;20062;-82
2021/04/25 11:12:45;;;;;;;12.10;10.23;;;13.20;67.00;;;;;;5053814;28;20047;-82
2021/04/25 11:15:49;;;;;;;14.30;10.43;;;13.30;69.90;;;;;;5091115;28;20484;-82
2021/04/25 11:18:51;;;;;;;14.27;9.93;;;13.50;64.80;;;;;;5091689;28;20060;-82
2021/04/25 11:21:39;;;;;;;13.52;10.02;;;13.90;69.60;;;;;;5072697;28;20043;-81
2021/04/25 11:24:07;;;;;;;15.23;12.20;;;14.00;63.60;;;;;;5092015;28;20555;-83
2021/04/25 11:26:40;;;;;;;17.88;10.65;;;13.40;66.90;;;;;;5097761;28;20048;-82
2021/04/25 11:29:16;;;;;;;13.20;10.57;;;13.30;63.10;;;;;;5093644;28;20039;-82
2021/04/25 11:34:32;;;;;;;14.75;13.23;;;14.00;59.30;;;;;;5091549;28;20059;-81
2021/04/25 11:37:20;;;;;;;14.48;10.90;;;13.60;62.40;;;;;;5091671;28;20048;-81
2021/04/25 11:39:56;;;;;;;16.50;10.82;;;13.40;63.20;;;;;;5091539;28;20036;-81
2021/04/25 11:42:47;;;;;;;18.02;10.27;;;13.20;64.20;;;;;;5091925;28;20523;-82
2021/04/25 11:45:23;;;;;;;20.37;12.27;;;13.60;67.00;;;;;;5073147;28;20070;-81
2021/04/25 11:48:03;;;;;;;14.35;9.82;;;13.60;62.00;;;;;;5092194;28;20282;-84
2021/04/25 11:50:34;;;;;;;16.20;9.75;;;13.70;63.50;;;;;;5092573;28;20394;-84
2021/04/25 11:53:07;;;;;;;17.92;10.23;;;13.30;64.90;;;;;;5091837;28;20048;-81
2021/04/25 11:55:35;;;;;;;13.55;8.93;;;13.50;64.50;;;;;;5091616;28;20516;-84
2021/04/25 11:58:02;;;;;;;13.02;9.15;;;13.50;61.70;;;;;;5110550;28;20051;-84
2021/04/25 12:00:33;;;;;;;15.35;8.48;;;13.70;58.70;;;;;;5111955;28;20043;-84
2021/04/25 12:03:02;;;;;;;12.27;9.23;;;13.90;57.10;;;;;;5112248;28;20063;-83
2021/04/25 12:05:32;;;;;;;16.45;8.63;;;13.80;59.50;;;;;;5112866;28;20416;-83
2021/04/25 12:08:04;;;;;;;11.05;7.82;;;13.80;59.40;;;;;;5112103;28;20039;-80
2021/04/25 12:10:35;;;;;;;13.23;9.95;;;14.00;59.00;;;;;;5111367;28;20051;-83
2021/04/25 12:13:19;;;;;;;14.63;8.60;;;14.30;61.90;;;;;;5111888;28;20055;-84
2021/04/25 12:16:05;;;;;;;;;;;14.00;56.20;;;;;;5112021;28;20416;-81
2021/04/25 12:18:41;;;;;;;19.70;10.23;;;13.80;57.90;;;;;;5094793;28;19943;-81
2021/04/25 12:21:19;;;;;;;14.63;9.75;;;13.60;59.90;;;;;;5072699;28;20097;-84
2021/04/25 12:23:50;;;;;;;14.35;8.45;;;13.70;58.20;;;;;;5091375;28;20052;-83
2021/04/25 12:26:20;;;;;;;13.25;7.38;;;13.90;59.70;;;;;;5093435;28;20051;-84
2021/04/25 12:28:52;;;;;;;19.70;7.82;;;14.20;59.90;;;;;;5111586;28;20070;-81
2021/04/25 12:31:25;;;;;;;11.18;8.38;;;14.00;56.90;;;;;;5111118;28;20044;-80
2021/04/25 12:33:56;;;;;;;13.73;9.85;;;14.10;56.40;;;;;;5110865;28;20070;-82
2021/04/25 12:36:27;;;;;;;10.27;8.32;;;13.80;56.40;;;;;;5077071;28;20051;-82
2021/04/25 12:39:05;;;;;;;9.85;7.88;;;13.70;53.20;;;;;;5055906;28;20044;-82
2021/04/25 12:41:44;;;;;;;15.63;8.93;;;13.90;57.20;;;;;;5090026;28;20052;-80
2021/04/25 12:44:17;;;;;;;12.90;9.00;;;14.00;56.80;;;;;;5090422;28;20048;-79
2021/04/25 12:46:56;;;;;;;11.38;7.60;;;13.80;52.60;;;;;;5090915;28;20408;-86
2021/04/25 12:49:38;;;;;;;12.40;7.50;;;14.10;52.10;;;;;;5104968;27;20062;-80
2021/04/25 12:52:07;;;;;;;13.18;9.65;;;14.50;54.70;;;;;;5131317;27;20388;-82
2021/04/25 12:54:43;;;;;;;10.88;7.22;;;14.20;60.20;;;;;;5131090;27;20047;-74
2021/04/25 12:57:27;;;;;;;9.38;7.20;;;14.20;57.70;;;;;;5092956;28;20508;-74
2021/04/25 12:59:55;;;;;;;12.05;7.82;;;14.20;52.20;;;;;;5090145;28;20230;-75